sensor_id;sensor_type;location;lat;lon;timestamp;P1;durP1;ratioP1;P2;durP2;ratioP2
32451;SDS011;45528;52.102;5.242;2023-09-19T00:02:42;3.4;;;0.6;;
32451;SDS011;45528;52.102;5.242;2023-09-19T00:04:19;2.8;;;0.6;;
32451;SDS011;45528;52.102;5.242;2023-09-19T00:05:55;2.7;;;0.8;;
32451;SDS011;45528;52.102;5.242;2023-09-19T00:09:09;4.61;;;1.0;;
32451;SDS011;45528;52.102;5.242;2023-09-19T00:10:45;2.5;;;0.8;;
32451;SDS011;45528;52.102;5.242;2023-09-19T00:12:21;2.1;;;0.6;;
32451;SDS011;45528;52.102;5.242;2023-09-19T00:15:36;2.21;;;0.8;;
32451;SDS011;45528;52.102;5.242;2023-09-19T00:17:14;2.31;;;0.9;;
32451;SDS011;45528;52.102;5.242;2023-09-19T00:18:50;2.7;;;0.9;;
32451;SDS011;45528;52.102;5.242;2023-09-19T00:20:27;1.7;;;0.9;;
32451;SDS011;45528;52.102;5.242;2023-09-19T00:23:39;3.3;;;1.0;;
32451;SDS011;45528;52.102;5.242;2023-09-19T00:25:15;2.21;;;0.7;;
32451;SDS011;45528;52.102;5.242;2023-09-19T00:26:51;4.5;;;0.8;;
32451;SDS011;45528;52.102;5.242;2023-09-19T00:30:04;2.7;;;0.9;;
32451;SDS011;45528;52.102;5.242;2023-09-19T00:31:42;2.1;;;0.5;;
32451;SDS011;45528;52.102;5.242;2023-09-19T00:33:19;1.4;;;0.6;;
32451;SDS011;45528;52.102;5.242;2023-09-19T00:36:31;3.6;;;0.8;;
32451;SDS011;45528;52.102;5.242;2023-09-19T00:38:07;1.5;;;0.8;;
32451;SDS011;45528;52.102;5.242;2023-09-19T00:39:43;1.8;;;0.7;;
32451;SDS011;45528;52.102;5.242;2023-09-19T00:41:19;1.3;;;0.7;;
32451;SDS011;45528;52.102;5.242;2023-09-19T00:44:33;2.5;;;0.7;;
32451;SDS011;45528;52.102;5.242;2023-09-19T00:46:09;1.11;;;0.9;;
32451;SDS011;45528;52.102;5.242;2023-09-19T00:47:47;2.31;;;0.8;;
32451;SDS011;45528;52.102;5.242;2023-09-19T00:51:02;3.0;;;0.9;;
32451;SDS011;45528;52.102;5.242;2023-09-19T00:52:40;4.0;;;0.7;;
32451;SDS011;45528;52.102;5.242;2023-09-19T00:54:18;3.5;;;0.8;;
32451;SDS011;45528;52.102;5.242;2023-09-19T00:57:31;2.7;;;0.6;;
32451;SDS011;45528;52.102;5.242;2023-09-19T00:59:08;2.5;;;0.7;;
32451;SDS011;45528;52.102;5.242;2023-09-19T01:00:44;1.2;;;0.7;;
32451;SDS011;45528;52.102;5.242;2023-09-19T01:02:21;3.7;;;0.9;;
32451;SDS011;45528;52.102;5.242;2023-09-19T01:05:33;3.9;;;0.8;;
32451;SDS011;45528;52.102;5.242;2023-09-19T01:07:09;3.0;;;1.0;;
32451;SDS011;45528;52.102;5.242;2023-09-19T01:08:45;1.4;;;0.6;;
32451;SDS011;45528;52.102;5.242;2023-09-19T01:11:58;1.7;;;0.8;;
32451;SDS011;45528;52.102;5.242;2023-09-19T01:13:48;2.21;;;0.8;;
32451;SDS011;45528;52.102;5.242;2023-09-19T01:15:37;5.3;;;0.9;;
32451;SDS011;45528;52.102;5.242;2023-09-19T01:17:27;2.7;;;0.6;;
32451;SDS011;45528;52.102;5.242;2023-09-19T01:19:24;1.6;;;0.5;;
32451;SDS011;45528;52.102;5.242;2023-09-19T01:21:33;1.8;;;0.9;;
32451;SDS011;45528;52.102;5.242;2023-09-19T01:23:21;3.8;;;0.6;;
32451;SDS011;45528;52.102;5.242;2023-09-19T01:27:17;2.21;;;0.8;;
32451;SDS011;45528;52.102;5.242;2023-09-19T01:29:17;1.5;;;0.9;;
32451;SDS011;45528;52.102;5.242;2023-09-19T01:31:09;2.21;;;0.6;;
32451;SDS011;45528;52.102;5.242;2023-09-19T01:32:47;3.5;;;0.6;;
32451;SDS011;45528;52.102;5.242;2023-09-19T01:34:25;1.7;;;0.7;;
32451;SDS011;45528;52.102;5.242;2023-09-19T01:36:01;4.91;;;1.11;;
32451;SDS011;45528;52.102;5.242;2023-09-19T01:39:13;1.4;;;0.6;;
32451;SDS011;45528;52.102;5.242;2023-09-19T01:40:51;2.0;;;0.6;;
32451;SDS011;45528;52.102;5.242;2023-09-19T01:42:40;4.1;;;0.8;;
32451;SDS011;45528;52.102;5.242;2023-09-19T01:44:22;1.4;;;0.5;;
32451;SDS011;45528;52.102;5.242;2023-09-19T01:46:16;1.4;;;0.6;;
32451;SDS011;45528;52.102;5.242;2023-09-19T01:49:59;1.6;;;0.6;;
32451;SDS011;45528;52.102;5.242;2023-09-19T01:51:50;2.0;;;0.7;;
32451;SDS011;45528;52.102;5.242;2023-09-19T01:53:38;3.9;;;0.6;;
32451;SDS011;45528;52.102;5.242;2023-09-19T01:55:20;1.5;;;0.6;;
32451;SDS011;45528;52.102;5.242;2023-09-19T01:56:59;2.4;;;0.4;;
32451;SDS011;45528;52.102;5.242;2023-09-19T02:00:23;1.11;;;0.6;;
32451;SDS011;45528;52.102;5.242;2023-09-19T02:02:04;2.0;;;0.8;;
32451;SDS011;45528;52.102;5.242;2023-09-19T02:03:42;0.5;;;0.5;;
32451;SDS011;45528;52.102;5.242;2023-09-19T02:05:22;2.6;;;0.8;;
32451;SDS011;45528;52.102;5.242;2023-09-19T02:08:36;2.6;;;0.8;;
32451;SDS011;45528;52.102;5.242;2023-09-19T02:10:13;3.6;;;0.5;;
32451;SDS011;45528;52.102;5.242;2023-09-19T02:11:49;1.0;;;0.5;;
32451;SDS011;45528;52.102;5.242;2023-09-19T02:13:25;3.1;;;0.7;;
32451;SDS011;45528;52.102;5.242;2023-09-19T02:16:38;2.9;;;0.9;;
32451;SDS011;45528;52.102;5.242;2023-09-19T02:18:14;2.9;;;0.8;;
32451;SDS011;45528;52.102;5.242;2023-09-19T02:19:50;3.1;;;1.0;;
32451;SDS011;45528;52.102;5.242;2023-09-19T02:23:02;1.6;;;0.9;;
32451;SDS011;45528;52.102;5.242;2023-09-19T02:24:39;7.2;;;1.2;;
32451;SDS011;45528;52.102;5.242;2023-09-19T02:26:15;1.11;;;0.5;;
32451;SDS011;45528;52.102;5.242;2023-09-19T02:29:27;3.4;;;0.9;;
32451;SDS011;45528;52.102;5.242;2023-09-19T02:31:03;4.41;;;0.9;;
32451;SDS011;45528;52.102;5.242;2023-09-19T02:32:40;2.8;;;0.8;;
32451;SDS011;45528;52.102;5.242;2023-09-19T02:34:16;4.2;;;1.0;;
32451;SDS011;45528;52.102;5.242;2023-09-19T02:37:31;1.4;;;0.6;;
32451;SDS011;45528;52.102;5.242;2023-09-19T02:39:07;3.6;;;0.9;;
32451;SDS011;45528;52.102;5.242;2023-09-19T02:40:43;3.6;;;0.9;;
32451;SDS011;45528;52.102;5.242;2023-09-19T02:43:55;2.21;;;0.9;;
32451;SDS011;45528;52.102;5.242;2023-09-19T02:45:31;1.9;;;1.0;;
32451;SDS011;45528;52.102;5.242;2023-09-19T02:47:07;4.0;;;1.0;;
32451;SDS011;45528;52.102;5.242;2023-09-19T02:50:20;4.0;;;1.11;;
32451;SDS011;45528;52.102;5.242;2023-09-19T02:51:56;4.5;;;1.3;;
32451;SDS011;45528;52.102;5.242;2023-09-19T02:53:32;3.4;;;1.11;;
32451;SDS011;45528;52.102;5.242;2023-09-19T02:56:44;2.0;;;0.9;;
32451;SDS011;45528;52.102;5.242;2023-09-19T02:58:20;1.8;;;0.7;;
32451;SDS011;45528;52.102;5.242;2023-09-19T02:59:56;3.3;;;0.9;;
32451;SDS011;45528;52.102;5.242;2023-09-19T03:01:32;5.5;;;1.6;;
32451;SDS011;45528;52.102;5.242;2023-09-19T03:04:45;4.61;;;1.2;;
32451;SDS011;45528;52.102;5.242;2023-09-19T03:06:21;5.6;;;1.3;;
32451;SDS011;45528;52.102;5.242;2023-09-19T03:07:57;3.5;;;1.3;;
32451;SDS011;45528;52.102;5.242;2023-09-19T03:11:09;4.61;;;1.2;;
32451;SDS011;45528;52.102;5.242;2023-09-19T03:12:45;2.1;;;0.9;;
32451;SDS011;45528;52.102;5.242;2023-09-19T03:14:21;4.91;;;1.2;;
32451;SDS011;45528;52.102;5.242;2023-09-19T03:17:33;7.4;;;1.5;;
32451;SDS011;45528;52.102;5.242;2023-09-19T03:19:09;4.2;;;1.4;;
32451;SDS011;45528;52.102;5.242;2023-09-19T03:20:51;4.0;;;1.2;;
32451;SDS011;45528;52.102;5.242;2023-09-19T03:22:28;2.7;;;1.0;;
32451;SDS011;45528;52.102;5.242;2023-09-19T03:25:40;4.91;;;1.0;;
32451;SDS011;45528;52.102;5.242;2023-09-19T03:27:16;6.7;;;1.4;;
32451;SDS011;45528;52.102;5.242;2023-09-19T03:28:52;2.21;;;1.0;;
32451;SDS011;45528;52.102;5.242;2023-09-19T03:32:05;2.9;;;0.9;;
32451;SDS011;45528;52.102;5.242;2023-09-19T03:33:41;1.8;;;0.8;;
32451;SDS011;45528;52.102;5.242;2023-09-19T03:35:18;2.6;;;0.8;;
32451;SDS011;45528;52.102;5.242;2023-09-19T03:38:31;2.5;;;1.0;;
32451;SDS011;45528;52.102;5.242;2023-09-19T03:40:08;2.9;;;1.2;;
32451;SDS011;45528;52.102;5.242;2023-09-19T03:41:45;7.4;;;1.11;;
32451;SDS011;45528;52.102;5.242;2023-09-19T03:43:21;2.31;;;0.8;;
32451;SDS011;45528;52.102;5.242;2023-09-19T03:46:33;5.9;;;1.11;;
32451;SDS011;45528;52.102;5.242;2023-09-19T03:48:09;5.7;;;1.5;;
32451;SDS011;45528;52.102;5.242;2023-09-19T03:49:45;2.7;;;1.11;;
32451;SDS011;45528;52.102;5.242;2023-09-19T03:52:58;4.91;;;1.2;;
32451;SDS011;45528;52.102;5.242;2023-09-19T03:54:34;9.5;;;1.4;;
32451;SDS011;45528;52.102;5.242;2023-09-19T03:56:10;6.1;;;1.4;;
32451;SDS011;45528;52.102;5.242;2023-09-19T03:59:24;9.31;;;1.5;;
32451;SDS011;45528;52.102;5.242;2023-09-19T04:01:00;6.8;;;1.3;;
32451;SDS011;45528;52.102;5.242;2023-09-19T04:02:37;4.91;;;1.2;;
32451;SDS011;45528;52.102;5.242;2023-09-19T04:05:49;4.7;;;1.2;;
32451;SDS011;45528;52.102;5.242;2023-09-19T04:07:25;3.0;;;1.2;;
32451;SDS011;45528;52.102;5.242;2023-09-19T04:09:02;6.1;;;1.2;;
32451;SDS011;45528;52.102;5.242;2023-09-19T04:10:40;8.9;;;1.11;;
32451;SDS011;45528;52.102;5.242;2023-09-19T04:13:54;2.7;;;1.11;;
32451;SDS011;45528;52.102;5.242;2023-09-19T04:15:30;6.7;;;1.4;;
32451;SDS011;45528;52.102;5.242;2023-09-19T04:17:06;2.7;;;0.8;;
32451;SDS011;45528;52.102;5.242;2023-09-19T04:20:18;10.0;;;1.4;;
32451;SDS011;45528;52.102;5.242;2023-09-19T04:21:54;12.5;;;1.8;;
32451;SDS011;45528;52.102;5.242;2023-09-19T04:23:30;6.5;;;1.3;;
32451;SDS011;45528;52.102;5.242;2023-09-19T04:26:43;5.7;;;1.2;;
32451;SDS011;45528;52.102;5.242;2023-09-19T04:28:19;5.0;;;1.11;;
32451;SDS011;45528;52.102;5.242;2023-09-19T04:29:55;7.7;;;1.0;;
32451;SDS011;45528;52.102;5.242;2023-09-19T04:31:31;10.3;;;1.8;;
32451;SDS011;45528;52.102;5.242;2023-09-19T04:34:43;7.8;;;1.11;;
32451;SDS011;45528;52.102;5.242;2023-09-19T04:36:19;4.91;;;1.5;;
32451;SDS011;45528;52.102;5.242;2023-09-19T04:37:55;10.0;;;1.3;;
32451;SDS011;45528;52.102;5.242;2023-09-19T04:41:08;4.0;;;1.11;;
32451;SDS011;45528;52.102;5.242;2023-09-19T04:42:44;4.3;;;1.3;;
32451;SDS011;45528;52.102;5.242;2023-09-19T04:44:20;6.7;;;1.3;;
32451;SDS011;45528;52.102;5.242;2023-09-19T04:47:32;5.3;;;1.3;;
32451;SDS011;45528;52.102;5.242;2023-09-19T04:49:08;9.71;;;1.11;;
32451;SDS011;45528;52.102;5.242;2023-09-19T04:50:44;3.5;;;0.9;;
32451;SDS011;45528;52.102;5.242;2023-09-19T04:53:56;5.11;;;1.4;;
32451;SDS011;45528;52.102;5.242;2023-09-19T04:55:33;4.1;;;1.3;;
32451;SDS011;45528;52.102;5.242;2023-09-19T04:57:09;7.3;;;1.3;;
32451;SDS011;45528;52.102;5.242;2023-09-19T04:58:45;11.6;;;1.5;;
32451;SDS011;45528;52.102;5.242;2023-09-19T05:01:58;5.7;;;1.11;;
32451;SDS011;45528;52.102;5.242;2023-09-19T05:03:34;6.7;;;1.6;;
32451;SDS011;45528;52.102;5.242;2023-09-19T05:05:10;3.8;;;1.4;;
32451;SDS011;45528;52.102;5.242;2023-09-19T05:08:23;7.3;;;1.5;;
32451;SDS011;45528;52.102;5.242;2023-09-19T05:09:59;6.3;;;1.8;;
32451;SDS011;45528;52.102;5.242;2023-09-19T05:11:36;7.8;;;1.3;;
32451;SDS011;45528;52.102;5.242;2023-09-19T05:14:48;4.3;;;1.11;;
32451;SDS011;45528;52.102;5.242;2023-09-19T05:16:24;5.5;;;1.3;;
32451;SDS011;45528;52.102;5.242;2023-09-19T05:18:00;7.2;;;1.4;;
32451;SDS011;45528;52.102;5.242;2023-09-19T05:19:36;7.8;;;1.4;;
32451;SDS011;45528;52.102;5.242;2023-09-19T05:22:48;6.7;;;1.4;;
32451;SDS011;45528;52.102;5.242;2023-09-19T05:24:24;7.6;;;1.4;;
32451;SDS011;45528;52.102;5.242;2023-09-19T05:26:00;3.7;;;1.2;;
32451;SDS011;45528;52.102;5.242;2023-09-19T05:29:12;6.4;;;1.2;;
32451;SDS011;45528;52.102;5.242;2023-09-19T05:30:48;7.4;;;1.5;;
32451;SDS011;45528;52.102;5.242;2023-09-19T05:32:24;4.3;;;1.4;;
32451;SDS011;45528;52.102;5.242;2023-09-19T05:35:36;6.1;;;1.4;;
32451;SDS011;45528;52.102;5.242;2023-09-19T05:37:12;6.0;;;1.11;;
32451;SDS011;45528;52.102;5.242;2023-09-19T05:38:48;18.2;;;2.9;;
32451;SDS011;45528;52.102;5.242;2023-09-19T05:42:02;13.1;;;2.5;;
32451;SDS011;45528;52.102;5.242;2023-09-19T05:43:38;6.5;;;1.4;;
32451;SDS011;45528;52.102;5.242;2023-09-19T05:45:14;7.9;;;1.7;;
32451;SDS011;45528;52.102;5.242;2023-09-19T05:46:50;5.3;;;1.6;;
32451;SDS011;45528;52.102;5.242;2023-09-19T05:50:02;9.5;;;1.5;;
32451;SDS011;45528;52.102;5.242;2023-09-19T05:51:38;4.2;;;1.5;;
32451;SDS011;45528;52.102;5.242;2023-09-19T05:53:14;6.8;;;1.7;;
32451;SDS011;45528;52.102;5.242;2023-09-19T05:56:26;7.7;;;1.4;;
32451;SDS011;45528;52.102;5.242;2023-09-19T05:58:03;5.0;;;1.2;;
32451;SDS011;45528;52.102;5.242;2023-09-19T05:59:39;5.8;;;1.3;;
32451;SDS011;45528;52.102;5.242;2023-09-19T06:02:51;9.1;;;1.3;;
32451;SDS011;45528;52.102;5.242;2023-09-19T06:04:27;7.3;;;1.5;;
32451;SDS011;45528;52.102;5.242;2023-09-19T06:06:03;6.8;;;1.5;;
32451;SDS011;45528;52.102;5.242;2023-09-19T06:09:15;5.6;;;1.5;;
32451;SDS011;45528;52.102;5.242;2023-09-19T06:10:51;6.4;;;1.3;;
32451;SDS011;45528;52.102;5.242;2023-09-19T06:12:27;6.4;;;1.3;;
32451;SDS011;45528;52.102;5.242;2023-09-19T06:14:04;10.6;;;1.8;;
32451;SDS011;45528;52.102;5.242;2023-09-19T06:17:16;6.7;;;1.4;;
32451;SDS011;45528;52.102;5.242;2023-09-19T06:18:52;6.5;;;1.2;;
32451;SDS011;45528;52.102;5.242;2023-09-19T06:20:28;4.8;;;1.0;;
32451;SDS011;45528;52.102;5.242;2023-09-19T06:23:40;8.4;;;1.2;;
32451;SDS011;45528;52.102;5.242;2023-09-19T06:25:16;5.11;;;1.4;;
32451;SDS011;45528;52.102;5.242;2023-09-19T06:26:53;8.31;;;1.9;;
32451;SDS011;45528;52.102;5.242;2023-09-19T06:30:06;7.3;;;1.3;;
32451;SDS011;45528;52.102;5.242;2023-09-19T06:31:43;4.0;;;1.4;;
32451;SDS011;45528;52.102;5.242;2023-09-19T06:33:19;5.11;;;1.5;;
32451;SDS011;45528;52.102;5.242;2023-09-19T06:34:55;9.0;;;1.5;;
32451;SDS011;45528;52.102;5.242;2023-09-19T06:38:07;7.0;;;1.4;;
32451;SDS011;45528;52.102;5.242;2023-09-19T06:39:43;5.8;;;1.2;;
32451;SDS011;45528;52.102;5.242;2023-09-19T06:41:19;7.4;;;1.2;;
32451;SDS011;45528;52.102;5.242;2023-09-19T06:44:31;7.5;;;1.3;;
32451;SDS011;45528;52.102;5.242;2023-09-19T06:46:07;5.7;;;1.3;;
32451;SDS011;45528;52.102;5.242;2023-09-19T06:47:44;5.11;;;1.3;;
32451;SDS011;45528;52.102;5.242;2023-09-19T06:50:57;4.5;;;1.4;;
32451;SDS011;45528;52.102;5.242;2023-09-19T06:52:33;4.5;;;1.4;;
32451;SDS011;45528;52.102;5.242;2023-09-19T06:54:09;6.1;;;1.5;;
32451;SDS011;45528;52.102;5.242;2023-09-19T06:57:21;8.6;;;1.2;;
32451;SDS011;45528;52.102;5.242;2023-09-19T06:58:57;7.9;;;1.3;;
32451;SDS011;45528;52.102;5.242;2023-09-19T07:00:33;9.21;;;1.6;;
32451;SDS011;45528;52.102;5.242;2023-09-19T07:02:09;4.0;;;1.5;;
32451;SDS011;45528;52.102;5.242;2023-09-19T07:05:22;7.1;;;1.4;;
32451;SDS011;45528;52.102;5.242;2023-09-19T07:06:58;7.8;;;1.8;;
32451;SDS011;45528;52.102;5.242;2023-09-19T07:08:34;7.7;;;1.6;;
32451;SDS011;45528;52.102;5.242;2023-09-19T07:11:46;5.9;;;1.3;;
32451;SDS011;45528;52.102;5.242;2023-09-19T07:13:22;9.71;;;1.4;;
32451;SDS011;45528;52.102;5.242;2023-09-19T07:14:58;7.5;;;1.6;;
32451;SDS011;45528;52.102;5.242;2023-09-19T07:18:10;7.1;;;1.0;;
32451;SDS011;45528;52.102;5.242;2023-09-19T07:19:47;13.6;;;1.8;;
32451;SDS011;45528;52.102;5.242;2023-09-19T07:21:23;3.6;;;1.11;;
32451;SDS011;45528;52.102;5.242;2023-09-19T07:24:35;4.5;;;1.3;;
32451;SDS011;45528;52.102;5.242;2023-09-19T07:26:11;6.7;;;1.4;;
32451;SDS011;45528;52.102;5.242;2023-09-19T07:27:47;9.31;;;1.6;;
32451;SDS011;45528;52.102;5.242;2023-09-19T07:29:23;14.7;;;1.7;;
32451;SDS011;45528;52.102;5.242;2023-09-19T07:32:37;8.5;;;1.4;;
32451;SDS011;45528;52.102;5.242;2023-09-19T07:34:13;6.5;;;1.5;;
32451;SDS011;45528;52.102;5.242;2023-09-19T07:35:50;5.4;;;1.6;;
32451;SDS011;45528;52.102;5.242;2023-09-19T07:39:02;3.3;;;1.4;;
32451;SDS011;45528;52.102;5.242;2023-09-19T07:40:38;9.21;;;1.5;;
32451;SDS011;45528;52.102;5.242;2023-09-19T07:42:15;4.91;;;1.2;;
32451;SDS011;45528;52.102;5.242;2023-09-19T07:45:27;6.9;;;1.2;;
32451;SDS011;45528;52.102;5.242;2023-09-19T07:47:03;8.5;;;1.7;;
32451;SDS011;45528;52.102;5.242;2023-09-19T07:48:39;8.1;;;1.7;;
32451;SDS011;45528;52.102;5.242;2023-09-19T07:50:16;6.9;;;1.5;;
32451;SDS011;45528;52.102;5.242;2023-09-19T07:53:29;11.2;;;2.0;;
32451;SDS011;45528;52.102;5.242;2023-09-19T07:55:05;8.5;;;1.5;;
32451;SDS011;45528;52.102;5.242;2023-09-19T07:56:42;7.3;;;1.4;;
32451;SDS011;45528;52.102;5.242;2023-09-19T07:59:54;7.2;;;1.8;;
32451;SDS011;45528;52.102;5.242;2023-09-19T08:01:30;9.9;;;1.8;;
32451;SDS011;45528;52.102;5.242;2023-09-19T08:03:06;7.9;;;1.8;;
32451;SDS011;45528;52.102;5.242;2023-09-19T08:06:18;14.7;;;2.1;;
32451;SDS011;45528;52.102;5.242;2023-09-19T08:07:55;9.31;;;2.1;;
32451;SDS011;45528;52.102;5.242;2023-09-19T08:09:31;3.6;;;1.2;;
32451;SDS011;45528;52.102;5.242;2023-09-19T08:12:43;10.7;;;2.0;;
32451;SDS011;45528;52.102;5.242;2023-09-19T08:14:19;8.71;;;2.0;;
32451;SDS011;45528;52.102;5.242;2023-09-19T08:15:55;10.6;;;1.5;;
32451;SDS011;45528;52.102;5.242;2023-09-19T08:17:33;4.1;;;1.6;;
32451;SDS011;45528;52.102;5.242;2023-09-19T08:20:48;10.5;;;2.21;;
32451;SDS011;45528;52.102;5.242;2023-09-19T08:22:25;13.0;;;1.7;;
32451;SDS011;45528;52.102;5.242;2023-09-19T08:24:01;7.2;;;1.6;;
32451;SDS011;45528;52.102;5.242;2023-09-19T08:27:14;8.81;;;1.2;;
32451;SDS011;45528;52.102;5.242;2023-09-19T08:28:50;5.11;;;1.5;;
32451;SDS011;45528;52.102;5.242;2023-09-19T08:30:26;9.4;;;1.9;;
32451;SDS011;45528;52.102;5.242;2023-09-19T08:33:39;10.8;;;2.1;;
32451;SDS011;45528;52.102;5.242;2023-09-19T08:35:15;5.4;;;1.4;;
32451;SDS011;45528;52.102;5.242;2023-09-19T08:36:51;8.2;;;1.8;;
32451;SDS011;45528;52.102;5.242;2023-09-19T08:38:28;10.9;;;1.9;;
32451;SDS011;45528;52.102;5.242;2023-09-19T08:41:42;8.6;;;1.7;;
32451;SDS011;45528;52.102;5.242;2023-09-19T08:43:18;5.4;;;1.8;;
32451;SDS011;45528;52.102;5.242;2023-09-19T08:44:57;9.81;;;2.31;;
32451;SDS011;45528;52.102;5.242;2023-09-19T08:48:23;6.9;;;1.9;;
32451;SDS011;45528;52.102;5.242;2023-09-19T08:50:03;3.6;;;1.2;;
32451;SDS011;45528;52.102;5.242;2023-09-19T08:51:46;5.11;;;1.4;;
32451;SDS011;45528;52.102;5.242;2023-09-19T08:53:36;8.5;;;1.9;;
32451;SDS011;45528;52.102;5.242;2023-09-19T08:55:17;10.7;;;1.8;;
32451;SDS011;45528;52.102;5.242;2023-09-19T08:58:38;7.1;;;1.5;;
32451;SDS011;45528;52.102;5.242;2023-09-19T09:00:27;9.71;;;2.1;;
32451;SDS011;45528;52.102;5.242;2023-09-19T09:02:04;5.5;;;1.7;;
32451;SDS011;45528;52.102;5.242;2023-09-19T09:03:44;8.81;;;2.4;;
32451;SDS011;45528;52.102;5.242;2023-09-19T09:07:00;7.0;;;1.4;;
32451;SDS011;45528;52.102;5.242;2023-09-19T09:08:38;8.4;;;1.4;;
32451;SDS011;45528;52.102;5.242;2023-09-19T09:10:14;11.2;;;1.7;;
32451;SDS011;45528;52.102;5.242;2023-09-19T09:11:51;8.31;;;1.6;;
32451;SDS011;45528;52.102;5.242;2023-09-19T09:15:06;7.1;;;1.5;;
32451;SDS011;45528;52.102;5.242;2023-09-19T09:16:43;13.5;;;2.0;;
32451;SDS011;45528;52.102;5.242;2023-09-19T09:18:19;7.9;;;1.4;;
32451;SDS011;45528;52.102;5.242;2023-09-19T09:21:31;6.2;;;1.2;;
32451;SDS011;45528;52.102;5.242;2023-09-19T09:23:07;6.2;;;1.2;;
32451;SDS011;45528;52.102;5.242;2023-09-19T09:24:51;7.6;;;1.8;;
32451;SDS011;45528;52.102;5.242;2023-09-19T09:26:43;11.9;;;1.6;;
32451;SDS011;45528;52.102;5.242;2023-09-19T09:29:58;8.6;;;1.4;;
32451;SDS011;45528;52.102;5.242;2023-09-19T09:31:34;8.2;;;1.6;;
32451;SDS011;45528;52.102;5.242;2023-09-19T09:33:10;11.2;;;1.5;;
32451;SDS011;45528;52.102;5.242;2023-09-19T09:36:36;18.5;;;2.4;;
32451;SDS011;45528;52.102;5.242;2023-09-19T09:38:14;5.5;;;1.7;;
32451;SDS011;45528;52.102;5.242;2023-09-19T09:39:52;7.2;;;1.9;;
32451;SDS011;45528;52.102;5.242;2023-09-19T09:41:35;8.9;;;1.8;;
32451;SDS011;45528;52.102;5.242;2023-09-19T09:43:16;9.5;;;1.6;;
32451;SDS011;45528;52.102;5.242;2023-09-19T09:46:56;9.6;;;1.7;;
32451;SDS011;45528;52.102;5.242;2023-09-19T09:48:32;10.8;;;1.9;;
32451;SDS011;45528;52.102;5.242;2023-09-19T09:50:08;11.7;;;1.8;;
32451;SDS011;45528;52.102;5.242;2023-09-19T09:51:45;4.91;;;1.6;;
32451;SDS011;45528;52.102;5.242;2023-09-19T09:55:03;8.6;;;1.6;;
32451;SDS011;45528;52.102;5.242;2023-09-19T09:56:55;4.91;;;1.6;;
32451;SDS011;45528;52.102;5.242;2023-09-19T09:58:33;11.7;;;1.9;;
32451;SDS011;45528;52.102;5.242;2023-09-19T10:00:10;12.1;;;2.1;;
32451;SDS011;45528;52.102;5.242;2023-09-19T10:03:30;12.9;;;2.1;;
32451;SDS011;45528;52.102;5.242;2023-09-19T10:05:11;9.21;;;1.8;;
32451;SDS011;45528;52.102;5.242;2023-09-19T10:06:49;7.8;;;1.7;;
32451;SDS011;45528;52.102;5.242;2023-09-19T10:08:27;11.1;;;2.0;;
32451;SDS011;45528;52.102;5.242;2023-09-19T10:11:41;5.0;;;1.2;;
32451;SDS011;45528;52.102;5.242;2023-09-19T10:13:19;5.7;;;1.7;;
32451;SDS011;45528;52.102;5.242;2023-09-19T10:14:55;11.1;;;1.6;;
32451;SDS011;45528;52.102;5.242;2023-09-19T10:18:16;9.9;;;1.8;;
32451;SDS011;45528;52.102;5.242;2023-09-19T10:19:56;5.9;;;1.6;;
32451;SDS011;45528;52.102;5.242;2023-09-19T10:21:32;9.81;;;1.6;;
32451;SDS011;45528;52.102;5.242;2023-09-19T10:23:10;5.6;;;1.6;;
32451;SDS011;45528;52.102;5.242;2023-09-19T10:26:26;7.7;;;1.6;;
32451;SDS011;45528;52.102;5.242;2023-09-19T10:28:03;5.6;;;1.7;;
32451;SDS011;45528;52.102;5.242;2023-09-19T10:29:41;7.9;;;1.4;;
32451;SDS011;45528;52.102;5.242;2023-09-19T10:31:21;7.7;;;1.5;;
32451;SDS011;45528;52.102;5.242;2023-09-19T10:34:38;4.61;;;1.5;;
32451;SDS011;45528;52.102;5.242;2023-09-19T10:36:17;7.9;;;1.9;;
32451;SDS011;45528;52.102;5.242;2023-09-19T10:37:54;4.91;;;1.4;;
32451;SDS011;45528;52.102;5.242;2023-09-19T10:41:08;11.4;;;1.9;;
32451;SDS011;45528;52.102;5.242;2023-09-19T10:42:48;9.21;;;1.2;;
32451;SDS011;45528;52.102;5.242;2023-09-19T10:44:26;5.11;;;1.5;;
32451;SDS011;45528;52.102;5.242;2023-09-19T10:46:07;5.7;;;1.2;;
32451;SDS011;45528;52.102;5.242;2023-09-19T10:49:20;7.6;;;1.4;;
32451;SDS011;45528;52.102;5.242;2023-09-19T10:50:58;10.0;;;1.6;;
32451;SDS011;45528;52.102;5.242;2023-09-19T10:52:42;5.11;;;1.4;;
32451;SDS011;45528;52.102;5.242;2023-09-19T10:55:59;10.7;;;1.5;;
32451;SDS011;45528;52.102;5.242;2023-09-19T10:57:37;8.0;;;1.3;;
32451;SDS011;45528;52.102;5.242;2023-09-19T10:59:14;5.4;;;1.2;;
32451;SDS011;45528;52.102;5.242;2023-09-19T11:00:52;3.5;;;1.11;;
32451;SDS011;45528;52.102;5.242;2023-09-19T11:06:00;5.2;;;1.0;;
32451;SDS011;45528;52.102;5.242;2023-09-19T11:07:56;6.9;;;1.2;;
32451;SDS011;45528;52.102;5.242;2023-09-19T11:09:49;5.0;;;1.3;;
32451;SDS011;45528;52.102;5.242;2023-09-19T11:11:42;4.8;;;1.3;;
32451;SDS011;45528;52.102;5.242;2023-09-19T11:13:23;4.1;;;1.3;;
32451;SDS011;45528;52.102;5.242;2023-09-19T11:16:37;5.11;;;1.11;;
32451;SDS011;45528;52.102;5.242;2023-09-19T11:18:50;4.5;;;1.2;;
32451;SDS011;45528;52.102;5.242;2023-09-19T11:20:28;5.5;;;1.11;;
32451;SDS011;45528;52.102;5.242;2023-09-19T11:22:04;5.0;;;1.4;;
32451;SDS011;45528;52.102;5.242;2023-09-19T11:23:40;3.8;;;1.11;;
32451;SDS011;45528;52.102;5.242;2023-09-19T11:27:25;6.5;;;1.7;;
32451;SDS011;45528;52.102;5.242;2023-09-19T11:29:24;8.0;;;1.5;;
32451;SDS011;45528;52.102;5.242;2023-09-19T11:33:19;4.5;;;1.0;;
32451;SDS011;45528;52.102;5.242;2023-09-19T11:35:06;4.2;;;1.0;;
32451;SDS011;45528;52.102;5.242;2023-09-19T11:36:42;2.7;;;0.9;;
32451;SDS011;45528;52.102;5.242;2023-09-19T11:38:19;4.3;;;1.11;;
32451;SDS011;45528;52.102;5.242;2023-09-19T11:40:34;6.4;;;1.11;;
32451;SDS011;45528;52.102;5.242;2023-09-19T11:44:34;4.8;;;1.0;;
32451;SDS011;45528;52.102;5.242;2023-09-19T11:46:10;7.1;;;1.11;;
32451;SDS011;45528;52.102;5.242;2023-09-19T11:47:46;4.2;;;1.11;;
32451;SDS011;45528;52.102;5.242;2023-09-19T11:49:25;3.3;;;0.8;;
32451;SDS011;45528;52.102;5.242;2023-09-19T11:51:11;4.7;;;1.11;;
32451;SDS011;45528;52.102;5.242;2023-09-19T11:52:57;6.4;;;1.3;;
32451;SDS011;45528;52.102;5.242;2023-09-19T11:56:11;5.2;;;1.0;;
32451;SDS011;45528;52.102;5.242;2023-09-19T11:57:47;2.4;;;0.6;;
32451;SDS011;45528;52.102;5.242;2023-09-19T11:59:24;2.4;;;1.0;;
32451;SDS011;45528;52.102;5.242;2023-09-19T12:02:41;3.5;;;0.8;;
32451;SDS011;45528;52.102;5.242;2023-09-19T12:04:33;1.4;;;0.8;;
32451;SDS011;45528;52.102;5.242;2023-09-19T12:06:11;4.3;;;1.0;;
32451;SDS011;45528;52.102;5.242;2023-09-19T12:07:47;3.1;;;0.8;;
32451;SDS011;45528;52.102;5.242;2023-09-19T12:11:01;5.0;;;0.8;;
32451;SDS011;45528;52.102;5.242;2023-09-19T12:12:37;5.0;;;0.8;;
32451;SDS011;45528;52.102;5.242;2023-09-19T12:14:21;5.7;;;0.8;;
32451;SDS011;45528;52.102;5.242;2023-09-19T12:15:58;2.8;;;0.8;;
32451;SDS011;45528;52.102;5.242;2023-09-19T12:19:19;1.9;;;0.9;;
32451;SDS011;45528;52.102;5.242;2023-09-19T12:20:57;3.7;;;0.7;;
32451;SDS011;45528;52.102;5.242;2023-09-19T12:22:38;2.31;;;1.0;;
32451;SDS011;45528;52.102;5.242;2023-09-19T12:25:51;3.0;;;0.6;;
32451;SDS011;45528;52.102;5.242;2023-09-19T12:27:27;8.1;;;0.9;;
32451;SDS011;45528;52.102;5.242;2023-09-19T12:29:03;5.4;;;0.7;;
32451;SDS011;45528;52.102;5.242;2023-09-19T12:30:39;4.3;;;0.8;;
32451;SDS011;45528;52.102;5.242;2023-09-19T12:33:53;3.3;;;0.9;;
32451;SDS011;45528;52.102;5.242;2023-09-19T12:35:29;3.5;;;0.8;;
32451;SDS011;45528;52.102;5.242;2023-09-19T12:37:08;5.8;;;0.9;;
32451;SDS011;45528;52.102;5.242;2023-09-19T12:40:24;5.2;;;0.8;;
32451;SDS011;45528;52.102;5.242;2023-09-19T12:42:00;3.0;;;0.8;;
32451;SDS011;45528;52.102;5.242;2023-09-19T12:43:36;6.8;;;0.8;;
32451;SDS011;45528;52.102;5.242;2023-09-19T12:46:49;3.3;;;1.11;;
32451;SDS011;45528;52.102;5.242;2023-09-19T12:48:25;4.3;;;0.7;;
32451;SDS011;45528;52.102;5.242;2023-09-19T12:50:06;7.0;;;0.8;;
32451;SDS011;45528;52.102;5.242;2023-09-19T12:51:45;4.8;;;0.9;;
32451;SDS011;45528;52.102;5.242;2023-09-19T12:55:00;2.8;;;0.8;;
32451;SDS011;45528;52.102;5.242;2023-09-19T12:56:40;4.2;;;0.9;;
32451;SDS011;45528;52.102;5.242;2023-09-19T12:58:17;3.2;;;0.8;;
32451;SDS011;45528;52.102;5.242;2023-09-19T12:59:53;3.5;;;0.8;;